Content
SEND FEEDBACK

Daily
Averages
Monthly
Summary
Mexico

SAN MARTINIANO, QUINTANA ROO


Home > North America > Mexico > Quintana Roo
Elevation: 49 feet     Latitude: 20 47N     Longitude: 087 16W

WEATHER
 
SELECT A DAY
Number of Records: 206,620;   Date Range: 2/21/06 - 12/27/14
 
SHARE

PRINT THIS DATA

[ ← Previous Day ]
WEATHER ALMANAC - JULY 3, 2013
[ Next Day → ]
[ °C ]   °F
Weather ElementAverageHighLow
Temperature78.6 °F89.6 °F (12:35 pm)75.2 °F (12:35 am)
Dewpoint19.1 °F78.8 °F (3:35 pm) (7:00 pm)
Humidity71.2 %100 % (3:35 pm)59 % (12:35 pm)
Barometer30.11 in30.16 in (11:55 pm)30.07 in (2:35 pm)
Wind Speed5.3 mph13.8 mph (11:55 am)
Wind Gust31.1 mph (2:55 pm)
Weather ElementAverage
Visibility9 mi
Wind DirectionESE (98.2 °)

Weather ElementTotal
Precipitation0.40 in
Cooling Degree Days17.4 (Base 65)
Growing Degree Days32.4 (Base 50)
Averaged from 71 records on July 3, 2013
WEATHER CONDITIONS BREAKOUT
WIND DIRECTION BREAKOUT
WEATHER BY HOUR - JULY 3, 2013
[ °C ]   °F
Local TimeTemperatureDewpointHumidityBarometerVisibilityWind DirectionWind SpeedGust SpeedPrecipitationEventsConditions
12:35 AM75.2 °F0.0 °F30.12 in10.0 miESE (110°)4.6 mphClear
12:55 AM75.2 °F0.0 °F30.11 in10.0 miESE (120°)6.9 mphClear
1:15 AM75.2 °F0.0 °F30.11 in10.0 miESE (110°)5.8 mphClear
1:35 AM75.2 °F0.0 °F30.11 in10.0 miESE (120°)3.5 mphClear
1:55 AM75.2 °F0.0 °F30.11 in10.0 miESE (110°)5.8 mphClear
2:15 AM75.2 °F0.0 °F30.10 in10.0 miEast (90°)3.5 mphClear
2:35 AM75.2 °F0.0 °F30.10 in10.0 miENE (70°)4.6 mphClear
2:55 AM75.2 °F0.0 °F30.09 in10.0 miENE (70°)4.6 mphClear
3:15 AM75.2 °F0.0 °F30.09 in10.0 miCalmClear
3:35 AM75.2 °F0.0 °F30.09 in10.0 miCalmClear
3:55 AM75.2 °F0.0 °F30.09 in10.0 miCalmClear
4:15 AM75.2 °F0.0 °F30.09 in10.0 miSE (140°)3.5 mphMostly Cloudy
4:35 AM75.2 °F0.0 °F30.09 in7.0 miSE (140°)4.6 mphOvercast
4:55 AM75.2 °F0.0 °F30.09 in1.5 miSE (130°)4.6 mphOvercast
5:15 AM75.2 °F0.0 °F30.09 in1.2 miESE (120°)4.6 mphOvercast
5:35 AM75.2 °F0.0 °F30.10 in3.0 miESE (110°)6.9 mphOvercast
5:55 AM75.2 °F0.0 °F30.10 in5.0 miESE (110°)5.8 mphHaze
6:15 AM75.2 °F0.0 °F30.09 in7.0 miESE (110°)5.8 mphOvercast
6:35 AM75.2 °F0.0 °F30.10 in7.0 miESE (110°)3.5 mphMostly Cloudy
6:55 AM75.2 °F0.0 °F30.11 in5.0 miESE (110°)3.5 mphHaze
7:15 AM75.2 °F0.0 °F30.11 in4.0 miCalmHaze
7:35 AM75.2 °F0.0 °F30.11 in5.0 miEast (100°)3.5 mphHaze
7:55 AM75.2 °F0.0 °F30.12 in7.0 miEast (100°)5.8 mphClear
8:15 AM77.0 °F0.0 °F30.13 in10.0 miESE (120°)6.9 mphClear
8:35 AM78.8 °F0.0 °F30.13 in10.0 miSE (130°)5.8 mphClear
8:55 AM80.6 °F0.0 °F30.13 in10.0 miSE (130°)6.9 mphClear
9:15 AM82.4 °F0.0 °F30.13 in10.0 miSE (130°)6.9 mphClear
9:35 AM82.4 °F0.0 °F30.13 in10.0 miSE (130°)8.1 mphScattered Clouds
9:55 AM84.2 °F0.0 °F30.14 in10.0 miSE (140°)12.7 mphScattered Clouds
10:15 AM86.0 °F77.0 °F74 %30.14 in10.0 miESE (120°)8.1 mphMostly Cloudy
10:35 AM86.0 °F77.0 °F74 %30.13 in10.0 miSE (130°)6.9 mphScattered Clouds
10:55 AM87.8 °F77.0 °F70 %30.13 in10.0 miESE (120°)9.2 mphClear
11:15 AM87.8 °F75.2 °F66 %30.13 in10.0 miSE (130°)9.2 mphScattered Clouds
11:35 AM87.8 °F75.2 °F66 %30.13 in10.0 miSE (130°)11.5 mph16.1 mphScattered Clouds
11:55 AM87.8 °F75.2 °F66 %30.13 in10.0 miESE (120°)13.8 mphScattered Clouds
12:15 PM87.8 °F75.2 °F66 %30.12 in10.0 miSE (130°)11.5 mphScattered Clouds
12:35 PM89.6 °F73.4 °F59 %30.12 in10.0 miSE (130°)12.7 mph20.7 mphScattered Clouds
12:55 PM89.6 °F75.2 °F62 %30.11 in10.0 miSSE (150°)6.9 mphScattered Clouds
1:15 PM89.6 °F75.2 °F62 %30.11 in10.0 miESE (110°)9.2 mphScattered Clouds
1:35 PM89.6 °F73.4 °F59 %30.10 in10.0 miSE (130°)8.1 mph16.1 mphMostly Cloudy
1:55 PM89.6 °F73.4 °F59 %30.09 in10.0 miSSE (150°)5.8 mphScattered Clouds
2:15 PM89.6 °F75.2 °F62 %30.08 in10.0 miSE (140°)6.9 mphScattered Clouds
2:35 PM89.6 °F73.4 °F59 %30.07 in10.0 miESE (120°)11.5 mph16.1 mphClear
2:55 PM78.8 °F73.4 °F83 %30.10 in4.0 miESE (120°)12.7 mph31.1 mph0.03 inRainRain
3:15 PM78.8 °F77.0 °F94 %30.09 in10.0 miESE (120°)9.2 mphRainLight Rain
3:35 PM78.8 °F78.8 °F100 %30.08 in10.0 miCalmClear
3:55 PM78.8 °F0.0 °F30.09 in10.0 miESE (120°)3.5 mphClear
4:15 PM80.6 °F0.0 °F30.09 in10.0 miEast (90°)4.6 mphClear
4:35 PM80.6 °F0.0 °F30.09 in10.0 miSE (130°)4.6 mphClear
4:55 PM75.2 °F75.2 °F100 %30.10 in0.8 miSouth (190°)12.7 mph18.4 mph0.31 inRainHeavy Rain
5:15 PM75.2 °F0.0 °F30.11 in10.0 miSSW (210°)8.1 mph0.01 inRainLight Rain
5:35 PM75.2 °F0.0 °F30.12 in10.0 miSSE (160°)3.5 mph0.02 inRainLight Rain
5:55 PM75.2 °F0.0 °F30.12 in10.0 miCalm0.03 inRainLight Rain
6:15 PM75.2 °F0.0 °F30.11 in10.0 miCalmRainLight Rain
6:35 PM75.2 °F0.0 °F30.11 in10.0 miCalmClear
6:55 PM75.2 °F0.0 °F30.11 in10.0 miCalmClear
7:15 PM75.2 °F0.0 °F30.10 in10.0 miCalmClear
7:35 PM75.2 °F0.0 °F30.12 in10.0 miESE (120°)4.6 mphScattered Clouds
7:55 PM75.2 °F0.0 °F30.12 in10.0 miCalmScattered Clouds
8:15 PM75.2 °F0.0 °F30.12 in10.0 miENE (60°)3.5 mphClear
8:35 PM75.2 °F0.0 °F30.12 in10.0 miCalmClear
8:55 PM75.2 °F0.0 °F30.11 in10.0 miCalmClear
9:15 PM75.2 °F0.0 °F30.12 in10.0 miEast (90°)5.8 mphClear
9:35 PM75.2 °F0.0 °F30.12 in10.0 miEast (90°)3.5 mphClear
9:55 PM75.2 °F0.0 °F30.13 in10.0 miEast (100°)3.5 mphScattered Clouds
10:15 PM75.2 °F0.0 °F30.14 in10.0 miEast (100°)4.6 mphScattered Clouds
10:35 PM75.2 °F0.0 °F30.14 in10.0 miESE (120°)4.6 mphScattered Clouds
10:55 PM75.2 °F0.0 °F30.15 in10.0 miSSE (150°)4.6 mphScattered Clouds
11:15 PM75.2 °F0.0 °F30.15 in10.0 miESE (110°)4.6 mphMostly Cloudy
11:35 PM75.2 °F0.0 °F30.15 in10.0 miEast (100°)5.8 mphScattered Clouds
11:55 PM75.2 °F0.0 °F30.16 in10.0 miESE (120°)4.6 mphScattered Clouds
Hourly data recorded from KPCM, located miles away from San Martiniano, Quintana Roo







STORIES FROM OUR PARTNERS